Ever Develop — 3FLF8 — position and weather

sailwx.info

Track history (hours):
 
Tides and Currents Weather Stations Pressure Air Temp Water Temp Dewpoint Dewpoint Depression Visibility Wind Speed Wind Dir Waves Ship Positions

Ever Develop

Last reported at 2014-Jul-21 15:27 UTC. Time now 2014-Aug-02 02:40 UTC.
Position N 30°58' E 124°41'.
Warning: this ship's position is 11 days out of date.

Type: Ship (hazmat cat D). MMSI: 356391000.

Date/timePositionNaut miles runAvg speedWind from/ knotsBaromVisibWave heightAir tempDewpointWater temp
2014-Jul-21 15:27N 30°58' E 124°41'7618.6
2014-Jul-21 11:21N 30°20' E 123°24'1518.7
2014-Jul-21 10:33N 30°19' E 123°07'1717.1
2014-Jul-21 09:33N 30°26' E 122°48'1716.7
2014-Jul-21 08:33N 30°31' E 122°30'1313.2
2014-Jul-21 07:33N 30°33' E 122°15'10 9.8
2014-Jul-21 06:32N 30°37' E 122°04'0 0.0
2014-Jul-20 18:27N 30°37' E 122°04'1 1.2
2014-Jul-20 17:33N 30°36' E 122°05'1110.9
2014-Jul-20 16:33N 30°33' E 122°17'8 7.7
2014-Jul-20 15:33N 30°32' E 122°26'1414.3
2014-Jul-20 14:33N 30°29' E 122°42'1414.0
2014-Jul-20 13:33N 30°21' E 122°56'1212.1
2014-Jul-20 12:33N 30°14' E 123°07'0 0.3
2014-Jul-20 11:33N 30°14' E 123°07'0 0.3
2014-Jul-20 10:34N 30°14' E 123°07'1 0.6
2014-Jul-20 09:34N 30°13' E 123°07'1 0.9
2014-Jul-20 08:25N 30°12' E 123°07'1 1.0
2014-Jul-20 07:31N 30°12' E 123°08'1 0.9
2014-Jul-20 06:25N 30°11' E 123°09'1 0.9
2014-Jul-20 05:19N 30°11' E 123°10'1 0.8
2014-Jul-20 04:25N 30°11' E 123°11'1 0.8
2014-Jul-20 03:25N 30°11' E 123°11'1 0.9
2014-Jul-20 02:31N 30°12' E 123°12'1 0.8
2014-Jul-20 01:25N 30°13' E 123°12'1 0.8
2014-Jul-20 00:19N 30°14' E 123°11'0 0.5
2014-Jul-19 23:25N 30°14' E 123°11'0 0.3
2014-Jul-19 22:31N 30°14' E 123°11'1 0.5
2014-Jul-19 21:31N 30°14' E 123°10'2 2.5
2014-Jul-19 20:33N 30°12' E 123°08'1313.3
2014-Jul-19 19:33N 30°03' E 122°57'1414.2
2014-Jul-19 18:33N 29°52' E 122°47'1313.3
2014-Jul-19 17:33N 29°46' E 122°33'1212.0
2014-Jul-19 16:33N 29°45' E 122°19'1212.4
2014-Jul-19 15:33N 29°54' E 122°10'6 6.4
2014-Jul-19 14:33N 29°53' E 122°03'0 0.0
2014-Jul-19 13:32N 29°53' E 122°03'0 0.0
2014-Jul-19 12:32N 29°53' E 122°03'0 0.0
2014-Jul-19 11:32N 29°53' E 122°03'0 0.0
2014-Jul-19 10:31N 29°53' E 122°03'0 0.0
2014-Jul-19 09:32N 29°53' E 122°03'0 0.0
2014-Jul-19 08:32N 29°53' E 122°03'0 0.0
2014-Jul-19 07:32N 29°53' E 122°03'0 0.0
2014-Jul-19 06:32N 29°53' E 122°03'0 0.0
2014-Jul-19 05:32N 29°53' E 122°03'0 0.0
2014-Jul-19 04:31N 29°53' E 122°03'0 0.0
2014-Jul-19 03:32N 29°53' E 122°03'0 0.0
2014-Jul-19 02:32N 29°53' E 122°03'0 0.0
2014-Jul-19 01:33N 29°53' E 122°03'4 4.1
2014-Jul-19 00:34N 29°55' E 122°07'1010.2
2014-Jul-18 23:33N 29°48' E 122°15'9 8.5
2014-Jul-18 22:33N 29°43' E 122°23'1212.4
2014-Jul-18 21:33N 29°38' E 122°36'1714.3
2014-Jul-18 20:23N 29°21' E 122°35'1113.5
2014-Jul-18 19:33N 29°10' E 122°32'2014.2
2014-Jul-18 18:09N 28°50' E 122°32'914.4
2014-Jul-18 17:30N 28°41' E 122°32'26911.6
2014-Jul-17 18:19N 24°53' E 119°52'1114.9
2014-Jul-17 17:33N 24°44' E 119°44'10715.0
2014-Jul-17 10:25N 23°32' E 118°16'1314.1
2014-Jul-17 09:29N 23°25' E 118°05'1213.3
2014-Jul-17 08:33N 23°18' E 117°54'1514.1
2014-Jul-17 07:30N 23°09' E 117°41'1515.2
2014-Jul-17 06:31N 23°00' E 117°27'1414.4
2014-Jul-17 05:33N 22°52' E 117°15'1414.2
2014-Jul-17 04:33N 22°44' E 117°03'1913.9
2014-Jul-17 03:12N 22°38' E 116°43'913.6
2014-Jul-17 02:33N 22°36' E 116°34'1413.6
2014-Jul-17 01:30N 22°32' E 116°19'11312.5
2014-Jul-16 16:27N 22°35' E 114°17'0 0.1
2014-Jul-16 15:22N 22°35' E 114°17'0 0.0
2014-Jul-16 14:28N 22°35' E 114°17'0 0.0
2014-Jul-16 13:24N 22°35' E 114°17'0 0.0
2014-Jul-16 12:33N 22°35' E 114°17'0 0.0
2014-Jul-16 11:33N 22°35' E 114°17'0 0.0
2014-Jul-16 10:32N 22°35' E 114°17'0 0.0
2014-Jul-16 09:33N 22°35' E 114°17'0 0.0
2014-Jul-16 08:28N 22°35' E 114°17'18 1.5
2014-Jul-15 20:30N 22°19' E 114°07'0 0.3
2014-Jul-15 19:30N 22°19' E 114°07'0 0.0
2014-Jul-15 17:18N 22°19' E 114°07'0 0.0
2014-Jul-15 15:18N 22°19' E 114°07'0 0.0
2014-Jul-15 14:06N 22°19' E 114°07'0 0.0
2014-Jul-15 08:10N 22°19' E 114°07'3 5.6
2014-Jul-15 07:33N 22°16' E 114°07'26516.1
2014-Jul-14 15:03N 22°31' E 118°53'918.3
2014-Jul-14 14:33N 22°31' E 119°03'1919.0
2014-Jul-14 13:32N 22°31' E 119°24'2019.1
2014-Jul-14 12:30N 22°31' E 119°46'1718.1
2014-Jul-14 11:33N 22°32' E 120°04'1414.2
2014-Jul-14 10:33N 22°33' E 120°19'1 0.4
2014-Jul-14 09:15N 22°33' E 120°20'0 0.0
2014-Jul-14 08:33N 22°33' E 120°20'0 0.0
2014-Jul-14 07:33N 22°33' E 120°20'0 0.0
2014-Jul-14 06:32N 22°33' E 120°20'0 0.0
2014-Jul-14 05:33N 22°33' E 120°20'0 0.0
2014-Jul-14 04:33N 22°33' E 120°20'0 0.0
2014-Jul-14 03:33N 22°33' E 120°20'0 0.0
2014-Jul-14 02:33N 22°33' E 120°20'0 0.0
2014-Jul-14 01:28N 22°33' E 120°20'0 0.0
2014-Jul-14 00:33N 22°33' E 120°20'0 0.0
2014-Jul-13 23:33N 22°33' E 120°20'0 0.0
2014-Jul-13 22:33N 22°33' E 120°20'0 0.0
2014-Jul-13 21:33N 22°33' E 120°20'0 0.0
2014-Jul-13 20:33N 22°33' E 120°20'0 0.0
2014-Jul-13 18:24N 22°33' E 120°20'0 0.0
2014-Jul-13 17:32N 22°33' E 120°20'1 0.7
2014-Jul-13 16:32N 22°33' E 120°19'8 7.9
2014-Jul-13 15:32N 22°30' E 120°12'0 0.4
2014-Jul-13 14:31N 22°29' E 120°11'0 0.3
2014-Jul-13 13:31N 22°29' E 120°11'1 0.5
2014-Jul-13 12:31N 22°30' E 120°11'1 0.8
2014-Jul-13 11:31N 22°30' E 120°10'1 0.6
2014-Jul-13 10:33N 22°29' E 120°10'5 5.0
2014-Jul-13 09:33N 22°24' E 120°12'1 1.2
2014-Jul-13 08:32N 22°25' E 120°10'1 1.2
2014-Jul-13 07:33N 22°26' E 120°10'1 1.2
2014-Jul-13 06:33N 22°27' E 120°09'1 1.3
2014-Jul-13 05:33N 22°28' E 120°08'5 5.4
2014-Jul-13 04:32N 22°33' E 120°09'1 0.9
2014-Jul-13 03:33N 22°33' E 120°08'1 0.9
2014-Jul-13 02:33N 22°32' E 120°07'1 0.9
2014-Jul-13 01:33N 22°31' E 120°07'6 5.6
2014-Jul-13 00:32N 22°30' E 120°13'4 4.5
2014-Jul-12 23:32N 22°30' E 120°08'3 2.5
2014-Jul-12 22:25N 22°28' E 120°10'1 0.8
2014-Jul-12 21:32N 22°28' E 120°10'1 0.8
2014-Jul-12 20:32N 22°29' E 120°09'1 0.6
2014-Jul-12 19:32N 22°29' E 120°08'1 0.9
2014-Jul-12 18:32N 22°30' E 120°08'1212.5
2014-Jul-12 17:33N 22°38' E 119°58'1312.6
2014-Jul-12 16:33N 22°50' E 119°53'  
Track history (hours):
 
Tides and Currents Weather Stations Pressure Air Temp Water Temp Dewpoint Dewpoint Depression Visibility Wind Speed Wind Dir Waves Ship Positions

Ever Develop

Last reported at 2014-Jul-21 15:27 UTC. Time now 2014-Aug-02 02:40 UTC.
Position N 30°58' E 124°41'.
Warning: this ship's position is 11 days out of date.

Type: Ship (hazmat cat D). MMSI: 356391000.

Date/timePositionNaut miles runAvg speedWind from/ knotsBaromVisibWave heightAir tempDewpointWater temp
2014-Jul-21 15:27N 30°58' E 124°41'7618.6
2014-Jul-21 11:21N 30°20' E 123°24'1518.7
2014-Jul-21 10:33N 30°19' E 123°07'1717.1
2014-Jul-21 09:33N 30°26' E 122°48'1716.7
2014-Jul-21 08:33N 30°31' E 122°30'1313.2
2014-Jul-21 07:33N 30°33' E 122°15'10 9.8
2014-Jul-21 06:32N 30°37' E 122°04'0 0.0
2014-Jul-20 18:27N 30°37' E 122°04'1 1.2
2014-Jul-20 17:33N 30°36' E 122°05'1110.9
2014-Jul-20 16:33N 30°33' E 122°17'8 7.7
2014-Jul-20 15:33N 30°32' E 122°26'1414.3
2014-Jul-20 14:33N 30°29' E 122°42'1414.0
2014-Jul-20 13:33N 30°21' E 122°56'1212.1
2014-Jul-20 12:33N 30°14' E 123°07'0 0.3
2014-Jul-20 11:33N 30°14' E 123°07'0 0.3
2014-Jul-20 10:34N 30°14' E 123°07'1 0.6
2014-Jul-20 09:34N 30°13' E 123°07'1 0.9
2014-Jul-20 08:25N 30°12' E 123°07'1 1.0
2014-Jul-20 07:31N 30°12' E 123°08'1 0.9
2014-Jul-20 06:25N 30°11' E 123°09'1 0.9
2014-Jul-20 05:19N 30°11' E 123°10'1 0.8
2014-Jul-20 04:25N 30°11' E 123°11'1 0.8
2014-Jul-20 03:25N 30°11' E 123°11'1 0.9
2014-Jul-20 02:31N 30°12' E 123°12'1 0.8
2014-Jul-20 01:25N 30°13' E 123°12'1 0.8
2014-Jul-20 00:19N 30°14' E 123°11'0 0.5
2014-Jul-19 23:25N 30°14' E 123°11'0 0.3
2014-Jul-19 22:31N 30°14' E 123°11'1 0.5
2014-Jul-19 21:31N 30°14' E 123°10'2 2.5
2014-Jul-19 20:33N 30°12' E 123°08'1313.3
2014-Jul-19 19:33N 30°03' E 122°57'1414.2
2014-Jul-19 18:33N 29°52' E 122°47'1313.3
2014-Jul-19 17:33N 29°46' E 122°33'1212.0
2014-Jul-19 16:33N 29°45' E 122°19'1212.4
2014-Jul-19 15:33N 29°54' E 122°10'6 6.4
2014-Jul-19 14:33N 29°53' E 122°03'0 0.0
2014-Jul-19 13:32N 29°53' E 122°03'0 0.0
2014-Jul-19 12:32N 29°53' E 122°03'0 0.0
2014-Jul-19 11:32N 29°53' E 122°03'0 0.0
2014-Jul-19 10:31N 29°53' E 122°03'0 0.0
2014-Jul-19 09:32N 29°53' E 122°03'0 0.0
2014-Jul-19 08:32N 29°53' E 122°03'0 0.0
2014-Jul-19 07:32N 29°53' E 122°03'0 0.0
2014-Jul-19 06:32N 29°53' E 122°03'0 0.0
2014-Jul-19 05:32N 29°53' E 122°03'0 0.0
2014-Jul-19 04:31N 29°53' E 122°03'0 0.0
2014-Jul-19 03:32N 29°53' E 122°03'0 0.0
2014-Jul-19 02:32N 29°53' E 122°03'0 0.0
2014-Jul-19 01:33N 29°53' E 122°03'4 4.1
2014-Jul-19 00:34N 29°55' E 122°07'1010.2
2014-Jul-18 23:33N 29°48' E 122°15'9 8.5
2014-Jul-18 22:33N 29°43' E 122°23'1212.4
2014-Jul-18 21:33N 29°38' E 122°36'1714.3
2014-Jul-18 20:23N 29°21' E 122°35'1113.5
2014-Jul-18 19:33N 29°10' E 122°32'2014.2
2014-Jul-18 18:09N 28°50' E 122°32'914.4
2014-Jul-18 17:30N 28°41' E 122°32'26911.6
2014-Jul-17 18:19N 24°53' E 119°52'1114.9
2014-Jul-17 17:33N 24°44' E 119°44'10715.0
2014-Jul-17 10:25N 23°32' E 118°16'1314.1
2014-Jul-17 09:29N 23°25' E 118°05'1213.3
2014-Jul-17 08:33N 23°18' E 117°54'1514.1
2014-Jul-17 07:30N 23°09' E 117°41'1515.2
2014-Jul-17 06:31N 23°00' E 117°27'1414.4
2014-Jul-17 05:33N 22°52' E 117°15'1414.2
2014-Jul-17 04:33N 22°44' E 117°03'1913.9
2014-Jul-17 03:12N 22°38' E 116°43'913.6
2014-Jul-17 02:33N 22°36' E 116°34'1413.6
2014-Jul-17 01:30N 22°32' E 116°19'11312.5
2014-Jul-16 16:27N 22°35' E 114°17'0 0.1
2014-Jul-16 15:22N 22°35' E 114°17'0 0.0
2014-Jul-16 14:28N 22°35' E 114°17'0 0.0
2014-Jul-16 13:24N 22°35' E 114°17'0 0.0
2014-Jul-16 12:33N 22°35' E 114°17'0 0.0
2014-Jul-16 11:33N 22°35' E 114°17'0 0.0
2014-Jul-16 10:32N 22°35' E 114°17'0 0.0
2014-Jul-16 09:33N 22°35' E 114°17'0 0.0
2014-Jul-16 08:28N 22°35' E 114°17'18 1.5
2014-Jul-15 20:30N 22°19' E 114°07'0 0.3
2014-Jul-15 19:30N 22°19' E 114°07'0 0.0
2014-Jul-15 17:18N 22°19' E 114°07'0 0.0
2014-Jul-15 15:18N 22°19' E 114°07'0 0.0
2014-Jul-15 14:06N 22°19' E 114°07'0 0.0
2014-Jul-15 08:10N 22°19' E 114°07'3 5.6
2014-Jul-15 07:33N 22°16' E 114°07'26516.1
2014-Jul-14 15:03N 22°31' E 118°53'918.3
2014-Jul-14 14:33N 22°31' E 119°03'1919.0
2014-Jul-14 13:32N 22°31' E 119°24'2019.1
2014-Jul-14 12:30N 22°31' E 119°46'1718.1
2014-Jul-14 11:33N 22°32' E 120°04'1414.2
2014-Jul-14 10:33N 22°33' E 120°19'1 0.4
2014-Jul-14 09:15N 22°33' E 120°20'0 0.0
2014-Jul-14 08:33N 22°33' E 120°20'0 0.0
2014-Jul-14 07:33N 22°33' E 120°20'0 0.0
2014-Jul-14 06:32N 22°33' E 120°20'0 0.0
2014-Jul-14 05:33N 22°33' E 120°20'0 0.0
2014-Jul-14 04:33N 22°33' E 120°20'0 0.0
2014-Jul-14 03:33N 22°33' E 120°20'0 0.0
2014-Jul-14 02:33N 22°33' E 120°20'0 0.0
2014-Jul-14 01:28N 22°33' E 120°20'0 0.0
2014-Jul-14 00:33N 22°33' E 120°20'0 0.0
2014-Jul-13 23:33N 22°33' E 120°20'0 0.0
2014-Jul-13 22:33N 22°33' E 120°20'0 0.0
2014-Jul-13 21:33N 22°33' E 120°20'0 0.0
2014-Jul-13 20:33N 22°33' E 120°20'0 0.0
2014-Jul-13 18:24N 22°33' E 120°20'0 0.0
2014-Jul-13 17:32N 22°33' E 120°20'1 0.7
2014-Jul-13 16:32N 22°33' E 120°19'8 7.9
2014-Jul-13 15:32N 22°30' E 120°12'0 0.4
2014-Jul-13 14:31N 22°29' E 120°11'0 0.3
2014-Jul-13 13:31N 22°29' E 120°11'1 0.5
2014-Jul-13 12:31N 22°30' E 120°11'1 0.8
2014-Jul-13 11:31N 22°30' E 120°10'1 0.6
2014-Jul-13 10:33N 22°29' E 120°10'5 5.0
2014-Jul-13 09:33N 22°24' E 120°12'1 1.2
2014-Jul-13 08:32N 22°25' E 120°10'1 1.2
2014-Jul-13 07:33N 22°26' E 120°10'1 1.2
2014-Jul-13 06:33N 22°27' E 120°09'1 1.3
2014-Jul-13 05:33N 22°28' E 120°08'5 5.4
2014-Jul-13 04:32N 22°33' E 120°09'1 0.9
2014-Jul-13 03:33N 22°33' E 120°08'1 0.9
2014-Jul-13 02:33N 22°32' E 120°07'1 0.9
2014-Jul-13 01:33N 22°31' E 120°07'6 5.6
2014-Jul-13 00:32N 22°30' E 120°13'4 4.5
2014-Jul-12 23:32N 22°30' E 120°08'3 2.5
2014-Jul-12 22:25N 22°28' E 120°10'1 0.8
2014-Jul-12 21:32N 22°28' E 120°10'1 0.8
2014-Jul-12 20:32N 22°29' E 120°09'1 0.6
2014-Jul-12 19:32N 22°29' E 120°08'1 0.9
2014-Jul-12 18:32N 22°30' E 120°08'1212.5
2014-Jul-12 17:33N 22°38' E 119°58'1312.6
2014-Jul-12 16:33N 22°50' E 119°53'  

Dump ship's entire track history